Time;durP1;ratioP1;P1;durP2;ratioP2;P2;SDS_P1;SDS_P2;PMS_P1;PMS_P2;Temp;Humidity;BMP_temperature;BMP_pressure;BME280_temperature;BME280_humidity;BME280_pressure;Samples;Min_cycle;Max_cycle;Signal;HPM_P1;HPM_P2
2022/11/17 00:01:59;;;;;;;6.30;4.90;;;11.70;91.00;;;;;;5076525;28;20177;-43
2022/11/17 00:04:27;;;;;;;5.87;4.20;;;11.60;91.00;;;;;;5077465;28;20181;-44
2022/11/17 00:06:53;;;;;;;5.60;4.23;;;11.50;91.10;;;;;;5077421;28;20194;-43
2022/11/17 00:09:19;;;;;;;4.90;4.40;;;11.50;91.30;;;;;;5077527;28;20453;-43
2022/11/17 00:14:35;;;;;;;5.37;3.87;;;11.40;91.40;;;;;;5077326;28;20613;-42
2022/11/17 00:17:02;;;;;;;4.57;3.60;;;11.30;91.50;;;;;;5076859;28;20422;-42
2022/11/17 00:22:12;;;;;;;7.40;3.77;;;11.20;91.70;;;;;;5076495;28;20423;-42
2022/11/17 00:24:37;;;;;;;5.90;3.60;;;11.20;91.80;;;;;;5057993;28;20816;-43
2022/11/17 00:27:03;;;;;;;4.27;2.97;;;11.20;91.80;;;;;;5074073;28;20302;-42
2022/11/17 00:29:29;;;;;;;3.90;3.33;;;11.10;91.90;;;;;;5075504;28;20621;-49
2022/11/17 00:34:39;;;;;;;3.47;3.17;;;11.10;92.10;;;;;;5075897;28;20470;-43
2022/11/17 00:37:05;;;;;;;4.67;2.70;;;11.10;92.20;;;;;;5058817;28;20408;-44
2022/11/17 00:39:31;;;;;;;4.40;2.90;;;11.00;92.20;;;;;;5059019;28;20184;-42
2022/11/17 00:41:57;;;;;;;3.07;2.77;;;11.00;92.20;;;;;;5076491;28;20419;-42
2022/11/17 00:44:23;;;;;;;4.80;3.30;;;11.00;92.30;;;;;;5076666;28;20717;-44
2022/11/17 00:46:49;;;;;;;4.93;3.27;;;11.00;92.40;;;;;;5076691;28;20200;-43
2022/11/17 00:49:18;;;;;;;5.77;3.17;;;11.00;92.40;;;;;;5076743;28;20521;-43
2022/11/17 00:51:43;;;;;;;3.63;3.23;;;11.00;92.40;;;;;;5077130;28;20216;-42
2022/11/17 00:54:11;;;;;;;3.93;3.07;;;10.90;92.50;;;;;;5076226;28;20526;-42
2022/11/17 00:56:37;;;;;;;3.00;2.50;;;10.90;92.50;;;;;;5076903;28;20174;-42
2022/11/17 00:59:03;;;;;;;3.13;2.47;;;10.90;92.60;;;;;;5075559;28;20864;-44
2022/11/17 01:01:29;;;;;;;4.10;3.00;;;10.90;92.60;;;;;;5077087;28;20422;-42
2022/11/17 01:04:01;;;;;;;3.77;2.80;;;10.90;92.60;;;;;;5076534;28;20199;-44
2022/11/17 01:06:30;;;;;;;4.07;2.70;;;10.90;92.70;;;;;;5076195;28;20415;-43
2022/11/17 01:09:00;;;;;;;3.20;2.60;;;10.90;92.70;;;;;;5076771;28;20824;-44
2022/11/17 01:11:27;;;;;;;3.30;2.70;;;10.90;92.70;;;;;;5077077;28;20422;-44
2022/11/17 01:13:54;;;;;;;3.80;2.67;;;10.90;92.80;;;;;;5076516;28;20475;-44
2022/11/17 01:16:20;;;;;;;3.57;3.10;;;10.90;92.90;;;;;;5076766;28;20415;-43
2022/11/17 01:18:47;;;;;;;3.50;2.90;;;10.90;92.90;;;;;;5076662;28;20525;-41
2022/11/17 01:21:16;;;;;;;4.70;3.10;;;10.90;93.10;;;;;;5075635;28;20232;-42
2022/11/17 01:23:43;;;;;;;3.93;2.80;;;10.90;93.10;;;;;;5076619;28;20729;-43
2022/11/17 01:26:15;;;;;;;5.27;2.83;;;10.80;93.20;;;;;;5075767;28;20415;-44
2022/11/17 01:28:42;;;;;;;3.23;2.77;;;10.80;93.20;;;;;;5077262;28;20851;-43
2022/11/17 01:31:12;;;;;;;3.03;2.70;;;10.80;93.30;;;;;;5076482;28;20474;-43
2022/11/17 01:33:37;;;;;;;3.20;2.60;;;10.80;93.30;;;;;;5076406;28;20462;-45
2022/11/17 01:36:09;;;;;;;5.30;2.80;;;10.80;93.40;;;;;;5076148;28;20864;-43
2022/11/17 01:38:35;;;;;;;4.70;2.50;;;10.80;93.40;;;;;;5076694;28;20238;-45
2022/11/17 01:41:02;;;;;;;3.67;3.27;;;10.70;93.40;;;;;;5076528;28;20410;-45
2022/11/17 01:43:55;;;;;;;4.13;2.97;;;10.70;93.50;;;;;;5078437;28;20188;-43
2022/11/17 01:46:37;;;;;;;7.10;2.93;;;10.70;93.50;;;;;;5076562;28;20704;-41
2022/11/17 01:49:05;;;;;;;3.47;2.43;;;10.70;93.50;;;;;;5080326;28;20438;-42
2022/11/17 01:51:33;;;;;;;3.77;3.07;;;10.70;93.50;;;;;;5080102;28;20470;-41
2022/11/17 01:53:59;;;;;;;3.73;2.97;;;10.60;93.50;;;;;;5079878;28;20475;-44
2022/11/17 01:56:29;;;;;;;3.83;2.63;;;10.60;93.50;;;;;;5062259;28;20865;-43
2022/11/17 01:59:00;;;;;;;3.57;2.70;;;10.60;93.50;;;;;;5078777;28;20338;-44
2022/11/17 02:01:26;;;;;;;4.30;2.93;;;10.60;93.60;;;;;;5062913;28;20416;-47
2022/11/17 02:03:52;;;;;;;2.87;2.57;;;10.60;93.60;;;;;;5062228;28;20683;-42
2022/11/17 02:06:19;;;;;;;2.80;2.60;;;10.60;93.50;;;;;;5079940;28;20472;-42
2022/11/17 02:08:46;;;;;;;2.67;2.27;;;10.60;93.50;;;;;;5061978;28;20177;-45
2022/11/17 02:11:15;;;;;;;3.57;2.50;;;10.60;93.40;;;;;;5060904;28;20484;-43
2022/11/17 02:13:41;;;;;;;2.50;2.10;;;10.60;93.40;;;;;;5079583;28;20801;-42
2022/11/17 02:16:16;;;;;;;2.87;2.57;;;10.60;93.40;;;;;;5079188;28;20498;-44
2022/11/17 02:18:43;;;;;;;4.70;2.70;;;10.60;93.30;;;;;;5078915;28;20193;-43
2022/11/17 02:21:27;;;;;;;3.20;2.90;;;10.60;93.30;;;;;;5062254;28;20416;-44
2022/11/17 02:24:08;;;;;;;7.90;2.70;;;10.50;93.30;;;;;;5079675;28;20427;-43
2022/11/17 02:26:39;;;;;;;3.10;2.40;;;10.50;93.30;;;;;;5079809;28;20399;-42
2022/11/17 02:29:26;;;;;;;3.23;2.93;;;10.50;93.30;;;;;;5079087;28;20432;-43
2022/11/17 02:32:25;;;;;;;4.03;3.03;;;10.40;93.30;;;;;;5061985;28;20415;-43
2022/11/17 02:35:08;;;;;;;3.33;2.93;;;10.40;93.30;;;;;;5061609;28;20466;-43
2022/11/17 02:37:56;;;;;;;3.87;2.77;;;10.40;93.30;;;;;;5061836;28;20415;-43
2022/11/17 02:40:31;;;;;;;3.60;2.60;;;10.30;93.30;;;;;;5078670;28;20436;-41
2022/11/17 02:46:03;;;;;;;3.33;2.80;;;10.20;93.30;;;;;;5062812;28;20936;-42
2022/11/17 02:48:32;;;;;;;3.93;2.63;;;10.20;93.30;;;;;;5078596;28;20413;-43
2022/11/17 02:50:58;;;;;;;4.77;3.10;;;10.20;93.30;;;;;;5060987;28;20464;-45
2022/11/17 02:53:27;;;;;;;3.00;2.67;;;10.20;93.40;;;;;;5060643;28;20419;-42
2022/11/17 02:55:53;;;;;;;4.93;2.80;;;10.20;93.40;;;;;;5060039;28;20507;-43
2022/11/17 02:58:19;;;;;;;4.13;2.90;;;10.20;93.50;;;;;;5078685;28;20421;-44
2022/11/17 03:01:07;;;;;;;4.27;2.93;;;10.20;93.60;;;;;;5078044;28;20526;-42
2022/11/17 03:03:35;;;;;;;5.27;3.03;;;10.20;93.60;;;;;;5078122;28;20423;-43
2022/11/17 03:06:39;;;;;;;4.27;2.70;;;10.20;93.60;;;;;;5078442;28;20425;-42
2022/11/17 03:09:19;;;;;;;6.10;2.93;;;10.20;93.70;;;;;;4978123;28;20434;-43
2022/11/17 03:11:52;;;;;;;3.30;2.70;;;10.20;93.70;;;;;;4977926;28;20485;-41
2022/11/17 03:14:51;;;;;;;4.60;3.30;;;10.20;93.70;;;;;;5039255;28;20503;-43
2022/11/17 03:17:21;;;;;;;3.67;3.00;;;10.20;93.80;;;;;;5078083;28;20832;-43
2022/11/17 03:19:57;;;;;;;2.97;2.60;;;10.20;94.00;;;;;;5061156;28;20810;-43
2022/11/17 03:22:41;;;;;;;2.30;1.93;;;10.20;94.20;;;;;;5060731;28;20455;-42
2022/11/17 03:25:10;;;;;;;3.00;2.70;;;10.20;94.30;;;;;;5059898;28;20431;-41
2022/11/17 03:27:39;;;;;;;2.53;2.33;;;10.20;94.50;;;;;;5060169;28;20911;-43
2022/11/17 03:30:07;;;;;;;2.53;2.33;;;10.20;94.70;;;;;;5077321;28;20424;-43
2022/11/17 03:32:41;;;;;;;8.80;3.20;;;10.20;94.80;;;;;;5078284;28;20522;-42
2022/11/17 03:35:10;;;;;;;4.00;2.73;;;10.20;94.90;;;;;;5078171;28;20481;-43
2022/11/17 03:37:39;;;;;;;4.77;2.60;;;10.20;95.00;;;;;;5060013;28;20474;-47
2022/11/17 03:40:08;;;;;;;3.00;2.43;;;10.20;95.10;;;;;;5060408;28;20444;-43
2022/11/17 03:42:36;;;;;;;2.63;2.37;;;10.20;95.20;;;;;;5059453;28;20419;-43
2022/11/17 03:45:25;;;;;;;3.67;2.60;;;10.20;95.20;;;;;;5077593;28;20437;-42
2022/11/17 03:47:57;;;;;;;3.90;2.70;;;10.20;95.30;;;;;;5076636;28;20814;-45
2022/11/17 03:50:33;;;;;;;5.93;2.87;;;10.30;95.60;;;;;;5043372;28;20445;-42
2022/11/17 03:53:01;;;;;;;3.87;2.93;;;10.20;95.70;;;;;;5060347;28;20438;-49
2022/11/17 03:55:42;;;;;;;3.30;2.47;;;10.20;95.80;;;;;;5058643;28;20506;-42
2022/11/17 03:58:11;;;;;;;2.97;2.13;;;10.20;96.00;;;;;;5058151;28;20415;-42
2022/11/17 04:00:38;;;;;;;2.87;2.57;;;10.20;96.00;;;;;;5059301;28;20735;-43
2022/11/17 04:03:04;;;;;;;4.23;2.37;;;10.20;96.30;;;;;;5076390;28;20794;-41
2022/11/17 04:05:29;;;;;;;3.10;2.80;;;10.20;96.40;;;;;;5076044;28;20526;-43
2022/11/17 04:07:55;;;;;;;4.10;3.10;;;10.20;96.50;;;;;;5076364;28;20181;-43
2022/11/17 04:10:24;;;;;;;2.77;2.57;;;10.20;96.60;;;;;;5077558;28;20193;-42
2022/11/17 04:18:21;;;;;;;4.13;2.17;;;10.20;96.70;;;;;;5060842;28;20547;-42
2022/11/17 04:20:53;;;;;;;3.90;3.50;;;10.20;96.70;;;;;;5076063;28;20460;-43
2022/11/17 04:23:19;;;;;;;3.20;2.47;;;10.20;96.70;;;;;;5076146;28;20416;-43
2022/11/17 04:28:37;;;;;;;2.97;2.67;;;10.30;96.80;;;;;;5075487;28;20694;-43
2022/11/17 04:31:09;;;;;;;3.53;2.73;;;10.30;96.70;;;;;;5076536;28;20861;-44
2022/11/17 04:33:36;;;;;;;3.80;2.73;;;10.30;96.70;;;;;;5076707;28;20414;-43
2022/11/17 04:36:03;;;;;;;4.60;3.30;;;10.30;96.70;;;;;;5076987;28;20451;-45
2022/11/17 04:38:28;;;;;;;3.40;3.10;;;10.30;96.70;;;;;;5077177;28;20412;-43
2022/11/17 04:43:54;;;;;;;2.80;2.60;;;10.30;96.90;;;;;;5077127;28;20447;-43
2022/11/17 04:46:21;;;;;;;2.80;2.53;;;10.30;97.00;;;;;;5059165;28;20601;-42
2022/11/17 04:48:47;;;;;;;2.90;2.60;;;10.30;97.10;;;;;;5076665;28;20428;-41
2022/11/17 04:51:14;;;;;;;3.83;2.53;;;10.30;97.10;;;;;;5077278;28;20869;-43
2022/11/17 04:53:40;;;;;;;3.10;2.80;;;10.30;97.10;;;;;;5058205;28;20518;-43
2022/11/17 04:56:06;;;;;;;3.50;2.60;;;10.30;97.10;;;;;;5075923;28;20570;-43
2022/11/17 04:58:31;;;;;;;2.90;2.43;;;10.30;97.10;;;;;;5076347;28;20840;-44
2022/11/17 05:01:11;;;;;;;3.70;3.03;;;10.30;97.10;;;;;;5075709;28;20428;-43
2022/11/17 05:03:45;;;;;;;3.07;2.77;;;10.30;97.00;;;;;;5076636;28;20189;-42
2022/11/17 05:06:13;;;;;;;3.30;3.00;;;10.30;97.00;;;;;;5076292;28;20434;-44
2022/11/17 05:08:39;;;;;;;3.77;3.13;;;10.30;97.00;;;;;;5076005;28;20728;-43
2022/11/17 05:13:51;;;;;;;3.67;3.33;;;10.30;97.00;;;;;;5074965;28;20499;-45
2022/11/17 05:19:03;;;;;;;3.00;2.70;;;10.40;97.00;;;;;;5077058;28;20706;-43
2022/11/17 05:21:29;;;;;;;3.63;3.27;;;10.40;97.00;;;;;;5078275;28;20419;-44
2022/11/17 05:23:55;;;;;;;4.43;3.53;;;10.30;97.10;;;;;;5078072;28;20454;-43
2022/11/17 05:26:27;;;;;;;4.33;3.40;;;10.30;97.10;;;;;;5061354;28;20276;-44
2022/11/17 05:28:54;;;;;;;3.67;2.90;;;10.40;97.50;;;;;;5077900;28;20420;-43
2022/11/17 05:31:20;;;;;;;3.37;3.07;;;10.40;97.30;;;;;;5079020;28;20423;-43
2022/11/17 05:33:46;;;;;;;3.10;2.67;;;10.30;97.30;;;;;;5076435;28;20423;-43
2022/11/17 05:36:12;;;;;;;3.57;2.97;;;10.30;97.30;;;;;;5059123;28;20474;-42
2022/11/17 05:38:38;;;;;;;3.03;2.73;;;10.40;97.40;;;;;;5077522;28;20277;-43
2022/11/17 05:41:04;;;;;;;3.80;2.97;;;10.40;97.40;;;;;;5076589;28;20516;-44
2022/11/17 05:43:30;;;;;;;3.50;2.40;;;10.30;97.40;;;;;;5061434;28;20192;-46
2022/11/17 05:45:55;;;;;;;2.77;2.53;;;10.30;97.40;;;;;;5061301;28;20458;-44
2022/11/17 05:48:21;;;;;;;3.10;2.83;;;10.30;97.50;;;;;;5076504;28;20174;-44
2022/11/17 05:50:46;;;;;;;3.30;2.80;;;10.40;97.50;;;;;;5077732;28;20251;-42
2022/11/17 05:53:12;;;;;;;3.10;2.80;;;10.30;97.50;;;;;;5076360;28;20273;-45
2022/11/17 05:55:38;;;;;;;2.60;2.30;;;10.30;97.50;;;;;;5075054;28;20233;-44
2022/11/17 05:58:08;;;;;;;3.37;2.50;;;10.30;97.50;;;;;;5076192;28;20692;-43
2022/11/17 06:00:36;;;;;;;2.37;2.10;;;10.30;97.50;;;;;;5057010;28;20239;-42
2022/11/17 06:03:06;;;;;;;2.60;2.13;;;10.30;97.50;;;;;;5038770;28;20429;-44
2022/11/17 06:05:35;;;;;;;2.70;1.80;;;10.30;97.50;;;;;;5055672;28;20509;-44
2022/11/17 06:08:00;;;;;;;2.23;1.93;;;10.20;97.40;;;;;;5073073;28;20679;-43
2022/11/17 06:10:27;;;;;;;2.73;1.80;;;10.20;97.40;;;;;;5071677;28;20540;-43
2022/11/17 06:12:52;;;;;;;2.17;1.97;;;10.20;97.50;;;;;;5071646;28;20171;-42
2022/11/17 06:15:18;;;;;;;2.97;1.70;;;10.20;97.60;;;;;;5072247;28;20493;-42
2022/11/17 06:17:52;;;;;;;1.67;1.40;;;10.20;97.80;;;;;;5053091;28;20174;-42
2022/11/17 06:20:20;;;;;;;2.30;1.70;;;10.10;97.90;;;;;;5069670;28;20583;-43
2022/11/17 06:22:47;;;;;;;2.73;1.83;;;10.10;98.10;;;;;;5035706;28;20562;-42
2022/11/17 06:25:13;;;;;;;2.30;1.97;;;10.00;98.20;;;;;;5072469;28;20458;-42
2022/11/17 06:27:39;;;;;;;2.37;1.63;;;10.00;98.30;;;;;;5073026;28;20455;-42
2022/11/17 06:30:05;;;;;;;2.27;1.43;;;10.00;98.30;;;;;;5050566;28;20435;-46
2022/11/17 06:32:34;;;;;;;1.83;1.50;;;10.00;98.40;;;;;;5053267;28;20603;-40
2022/11/17 06:35:01;;;;;;;2.33;1.63;;;10.00;98.40;;;;;;5056406;28;20556;-42
2022/11/17 06:37:27;;;;;;;3.37;2.00;;;10.00;98.40;;;;;;5057246;28;20884;-41
2022/11/17 06:39:53;;;;;;;1.73;1.40;;;10.00;98.50;;;;;;5057614;28;20480;-41
2022/11/17 06:43:02;;;;;;;2.57;2.37;;;10.00;98.50;;;;;;5074688;28;20189;-44
2022/11/17 06:45:05;;;;;;;2.50;2.10;;;10.00;98.50;;;;;;5072886;28;20381;-42
2022/11/17 06:47:30;;;;;;;3.57;1.70;;;9.90;99.10;;;;;;5072005;28;20502;-42
2022/11/17 06:49:56;;;;;;;2.13;1.67;;;9.90;99.10;;;;;;5072785;28;20545;-43
2022/11/17 06:52:21;;;;;;;2.10;1.50;;;10.00;98.60;;;;;;5071473;28;20230;-41
2022/11/17 06:54:47;;;;;;;3.63;1.67;;;10.00;98.60;;;;;;5081958;28;20285;-41
2022/11/17 06:57:13;;;;;;;3.43;2.10;;;10.10;98.70;;;;;;5094101;28;20579;-42
2022/11/17 06:59:38;;;;;;;2.23;1.83;;;10.10;98.80;;;;;;5092695;28;20174;-42
2022/11/17 07:02:04;;;;;;;2.13;1.73;;;10.10;98.70;;;;;;5075709;28;20215;-42
2022/11/17 07:04:30;;;;;;;1.80;1.70;;;10.20;98.60;;;;;;5095922;28;20489;-42
2022/11/17 07:06:55;;;;;;;1.60;1.33;;;10.30;98.50;;;;;;5093672;28;20233;-42
2022/11/17 07:09:21;;;;;;;2.40;1.13;;;10.30;98.40;;;;;;5097372;28;20477;-42
2022/11/17 07:11:46;;;;;;;3.63;1.30;;;10.30;98.40;;;;;;5096792;28;20165;-44
2022/11/17 07:14:12;;;;;;;2.70;1.03;;;10.40;98.40;;;;;;5096665;28;20207;-41
2022/11/17 07:16:41;;;;;;;2.27;1.40;;;10.50;98.20;;;;;;5097226;28;20609;-44
2022/11/17 07:19:08;;;;;;;2.90;1.77;;;10.50;98.00;;;;;;5096274;28;20169;-42
2022/11/17 07:21:34;;;;;;;3.37;1.20;;;10.50;97.90;;;;;;5094684;28;20418;-44
2022/11/17 07:24:00;;;;;;;2.50;1.57;;;10.60;97.90;;;;;;5095171;28;20568;-44
2022/11/17 07:26:26;;;;;;;2.53;1.37;;;10.70;97.90;;;;;;5089574;28;20457;-43
2022/11/17 07:28:53;;;;;;;3.40;1.60;;;10.70;97.70;;;;;;5095382;28;20176;-42
2022/11/17 07:31:20;;;;;;;2.43;1.73;;;10.80;97.70;;;;;;5094115;28;20192;-42
2022/11/17 07:33:45;;;;;;;1.93;1.30;;;10.90;97.50;;;;;;5094571;28;20732;-42
2022/11/17 07:36:13;;;;;;;2.73;1.20;;;11.00;97.30;;;;;;5094696;28;20200;-41
2022/11/17 07:38:40;;;;;;;1.70;0.93;;;11.00;97.20;;;;;;5093817;28;20175;-42
2022/11/17 07:41:07;;;;;;;3.00;1.30;;;11.10;97.10;;;;;;5094597;28;20579;-42
2022/11/17 07:43:34;;;;;;;2.60;1.40;;;11.20;96.90;;;;;;5094566;28;20705;-43
2022/11/17 07:46:07;;;;;;;2.67;1.40;;;11.30;96.70;;;;;;5095324;28;20539;-41
2022/11/17 07:48:32;;;;;;;1.87;1.50;;;11.50;96.30;;;;;;5096035;28;20415;-43
2022/11/17 07:50:59;;;;;;;1.87;1.10;;;11.60;96.10;;;;;;5095569;28;20438;-41
2022/11/17 07:53:24;;;;;;;2.70;1.27;;;11.80;95.90;;;;;;5093601;28;20247;-42
2022/11/17 07:55:50;;;;;;;2.87;1.10;;;11.90;95.50;;;;;;5092441;28;20478;-42
2022/11/17 07:58:16;;;;;;;3.80;1.40;;;12.00;95.20;;;;;;5074972;28;20465;-42
2022/11/17 08:00:41;;;;;;;2.20;0.90;;;12.20;95.00;;;;;;5091301;28;20178;-42
2022/11/17 08:03:08;;;;;;;1.97;0.80;;;12.20;94.80;;;;;;5095733;28;20172;-41
2022/11/17 08:05:35;;;;;;;1.83;1.00;;;12.30;94.60;;;;;;5078904;28;20182;-43
2022/11/17 08:08:01;;;;;;;4.77;0.83;;;12.40;94.30;;;;;;5094590;28;20545;-42
2022/11/17 08:10:30;;;;;;;1.83;1.07;;;12.50;94.00;;;;;;5095233;28;20874;-42
2022/11/17 08:12:57;;;;;;;2.83;1.30;;;12.70;93.90;;;;;;5096245;28;20510;-44
2022/11/17 08:15:23;;;;;;;2.70;1.13;;;13.00;93.50;;;;;;5095577;28;20471;-42
2022/11/17 08:17:53;;;;;;;1.43;0.80;;;13.20;93.10;;;;;;5094954;28;20909;-44
2022/11/17 08:20:19;;;;;;;2.90;0.90;;;13.40;92.70;;;;;;5077394;28;20577;-43
2022/11/17 08:22:45;;;;;;;2.03;0.90;;;13.40;92.40;;;;;;5094255;28;20412;-44
2022/11/17 08:25:12;;;;;;;2.83;0.90;;;13.50;92.10;;;;;;5092488;28;20539;-44
2022/11/17 08:27:38;;;;;;;3.10;0.90;;;13.60;91.90;;;;;;5072585;28;20451;-42
2022/11/17 08:30:06;;;;;;;1.40;0.70;;;13.60;91.80;;;;;;5075317;28;20447;-42
2022/11/17 08:32:32;;;;;;;3.87;0.90;;;13.50;91.70;;;;;;5072598;28;20243;-42
2022/11/17 08:34:57;;;;;;;2.90;0.80;;;13.40;91.70;;;;;;5078294;28;20473;-43
2022/11/17 08:37:26;;;;;;;4.73;0.90;;;13.40;92.00;;;;;;5092868;28;20173;-44
2022/11/17 08:39:52;;;;;;;3.50;0.90;;;13.40;92.00;;;;;;5094317;28;20165;-43
2022/11/17 08:42:17;;;;;;;1.67;0.67;;;13.50;92.10;;;;;;5075675;28;21024;-42
2022/11/17 08:44:44;;;;;;;1.83;0.87;;;13.80;92.20;;;;;;5094542;28;20601;-45
2022/11/17 08:47:09;;;;;;;1.83;0.93;;;14.30;91.30;;;;;;5094481;28;20172;-43
2022/11/17 08:49:35;;;;;;;2.23;0.70;;;14.70;90.10;;;;;;5094712;28;20557;-46
2022/11/17 08:52:01;;;;;;;1.50;1.00;;;15.10;88.50;;;;;;5094798;28;20173;-43
2022/11/17 08:54:26;;;;;;;3.00;1.20;;;15.20;87.00;;;;;;5098782;28;20230;-42
2022/11/17 08:56:56;;;;;;;1.50;0.60;;;15.20;86.50;;;;;;5099880;28;20173;-43
2022/11/17 08:59:22;;;;;;;2.70;0.47;;;15.30;86.70;;;;;;5099921;28;20187;-42
2022/11/17 09:01:47;;;;;;;1.10;0.40;;;15.30;85.90;;;;;;5097670;28;20407;-42
2022/11/17 09:04:13;;;;;;;1.10;0.50;;;15.40;85.80;;;;;;5097701;28;20183;-45
2022/11/17 09:06:39;;;;;;;1.60;0.60;;;15.40;85.30;;;;;;5099006;28;20241;-43
2022/11/17 09:09:04;;;;;;;1.47;0.53;;;15.60;85.40;;;;;;5098969;28;20264;-43
2022/11/17 09:11:30;;;;;;;1.80;0.53;;;15.90;84.30;;;;;;5099261;28;20512;-43
2022/11/17 09:13:56;;;;;;;2.17;0.70;;;16.10;82.90;;;;;;5099674;28;20486;-44
2022/11/17 09:16:22;;;;;;;3.37;0.67;;;16.10;82.40;;;;;;5099642;28;20186;-44
2022/11/17 09:18:52;;;;;;;1.20;0.50;;;16.00;81.80;;;;;;5098433;28;20169;-42
2022/11/17 09:21:17;;;;;;;2.93;0.80;;;15.90;81.60;;;;;;5078028;28;20609;-42
2022/11/17 09:23:43;;;;;;;2.30;0.80;;;15.90;81.30;;;;;;5096948;28;20476;-43
2022/11/17 09:26:12;;;;;;;1.20;0.57;;;16.00;81.30;;;;;;5094683;28;20458;-43
2022/11/17 09:28:38;;;;;;;3.67;0.70;;;15.90;80.60;;;;;;5095311;28;20167;-42
2022/11/17 09:31:17;;;;;;;2.60;0.80;;;15.80;80.60;;;;;;5095373;28;20485;-41
2022/11/17 09:33:43;;;;;;;1.60;0.63;;;15.80;81.40;;;;;;5096534;28;20411;-44
2022/11/17 09:36:10;;;;;;;1.90;0.83;;;16.10;81.70;;;;;;5078906;28;20442;-42
2022/11/17 09:38:36;;;;;;;1.50;0.77;;;16.50;80.40;;;;;;5095834;28;20365;-43
2022/11/17 09:41:22;;;;;;;2.40;0.70;;;16.80;78.10;;;;;;5096656;28;20430;-42
2022/11/17 09:43:51;;;;;;;12.43;1.87;;;16.90;77.30;;;;;;5080529;28;20188;-42
2022/11/17 09:46:32;;;;;;;2.63;0.70;;;16.80;77.00;;;;;;5098468;28;20424;-42
2022/11/17 09:49:17;;;;;;;2.03;0.90;;;16.80;76.60;;;;;;5079709;28;20479;-45
2022/11/17 09:51:45;;;;;;;2.80;1.00;;;16.90;76.00;;;;;;5079525;28;20826;-42
2022/11/17 09:54:19;;;;;;;2.07;1.00;;;16.80;75.30;;;;;;5097287;28;20490;-44
2022/11/17 09:56:46;;;;;;;2.43;0.70;;;16.80;74.70;;;;;;5079492;28;20469;-43
2022/11/17 09:59:14;;;;;;;3.10;1.13;;;16.80;74.50;;;;;;5078297;28;20424;-44
2022/11/17 10:01:39;;;;;;;2.63;0.70;;;17.00;74.30;;;;;;5080851;28;20474;-42
2022/11/17 10:04:15;;;;;;;2.60;1.10;;;17.20;73.30;;;;;;5079267;28;20743;-44
2022/11/17 10:06:42;;;;;;;1.70;0.90;;;17.40;74.60;;;;;;5080992;28;20180;-43
2022/11/17 10:09:28;;;;;;;2.67;1.00;;;17.70;79.60;;;;;;5097101;28;20413;-41
2022/11/17 10:11:58;;;;;;;2.67;1.40;;;17.80;77.20;;;;;;5079429;28;20704;-45
2022/11/17 10:14:27;;;;;;;2.50;0.87;;;18.50;75.40;;;;;;5078230;28;20466;-42
2022/11/17 10:16:54;;;;;;;2.70;1.00;;;19.50;73.60;;;;;;5096866;28;20416;-42
2022/11/17 10:19:27;;;;;;;3.10;1.20;;;20.70;69.30;;;;;;5095293;28;20671;-45
2022/11/17 10:22:05;;;;;;;1.67;0.90;;;21.90;64.30;;;;;;5096986;28;20414;-43
2022/11/17 10:24:41;;;;;;;2.30;0.90;;;22.90;58.10;;;;;;5097077;28;20424;-40
2022/11/17 10:27:21;;;;;;;3.27;1.03;;;23.00;55.70;;;;;;5096787;28;20436;-40
2022/11/17 10:30:06;;;;;;;2.10;1.30;;;22.50;54.10;;;;;;5096233;28;20516;-40
2022/11/17 10:32:35;;;;;;;3.77;1.40;;;21.90;54.20;;;;;;5094966;28;20502;-41
2022/11/17 10:35:29;;;;;;;2.30;0.90;;;21.20;52.80;;;;;;5096377;28;20480;-40
2022/11/17 10:38:24;;;;;;;2.70;0.83;;;21.20;52.60;;;;;;5096352;28;20708;-42
2022/11/17 10:40:50;;;;;;;4.00;1.30;;;21.10;52.40;;;;;;5056435;28;20515;-42
2022/11/17 10:43:34;;;;;;;3.30;1.10;;;20.90;52.50;;;;;;5078876;28;20418;-41
2022/11/17 10:46:04;;;;;;;3.03;1.30;;;20.70;52.50;;;;;;5098048;28;20456;-42
2022/11/17 10:48:33;;;;;;;4.13;1.40;;;20.40;52.90;;;;;;5078599;28;20410;-43
2022/11/17 10:51:11;;;;;;;2.67;1.10;;;20.20;53.20;;;;;;5079233;28;20773;-42
2022/11/17 10:53:42;;;;;;;3.30;1.13;;;20.30;53.50;;;;;;5097403;28;20824;-40
2022/11/17 10:56:20;;;;;;;4.83;1.13;;;21.80;53.30;;;;;;5059721;28;20484;-40
2022/11/17 10:59:19;;;;;;;2.23;0.97;;;23.90;50.40;;;;;;5078563;28;20416;-43
2022/11/17 11:01:48;;;;;;;2.70;1.07;;;26.10;46.40;;;;;;5077821;28;20414;-42
2022/11/17 11:04:29;;;;;;;3.87;1.00;;;27.60;42.30;;;;;;5076394;28;20410;-44
2022/11/17 11:07:19;;;;;;;2.40;1.13;;;28.20;40.00;;;;;;5070167;28;20423;-44
2022/11/17 11:10:06;;;;;;;3.20;1.17;;;28.70;38.80;;;;;;5076139;28;20448;-43
2022/11/17 11:12:52;;;;;;;2.40;1.40;;;29.80;37.60;;;;;;5075376;28;20492;-45
2022/11/17 11:15:22;;;;;;;3.93;1.17;;;30.60;36.20;;;;;;5076382;28;20529;-45
2022/11/17 11:17:48;;;;;;;4.30;1.67;;;30.10;35.40;;;;;;5076620;28;20526;-44
2022/11/17 11:20:23;;;;;;;3.70;1.57;;;29.30;35.50;;;;;;5075828;28;20438;-43
2022/11/17 11:22:58;;;;;;;3.30;1.27;;;28.30;36.50;;;;;;5075396;28;20514;-42
2022/11/17 11:25:48;;;;;;;5.40;1.60;;;27.40;37.50;;;;;;5075681;28;20488;-42
2022/11/17 11:28:23;;;;;;;3.53;1.57;;;28.00;37.80;;;;;;5077707;28;21001;-43
2022/11/17 11:31:46;;;;;;;4.97;1.40;;;28.10;37.10;;;;;;5076070;28;20496;-44
2022/11/17 11:34:37;;;;;;;4.30;1.60;;;27.90;37.30;;;;;;4978029;28;20439;-43
2022/11/17 11:37:08;;;;;;;3.80;1.47;;;27.30;37.60;;;;;;5072614;28;20444;-43
2022/11/17 11:39:33;;;;;;;3.80;1.60;;;26.50;38.10;;;;;;5075085;28;20421;-43
2022/11/17 11:42:22;;;;;;;4.50;1.43;;;25.60;38.90;;;;;;5075746;28;20503;-43
2022/11/17 11:44:51;;;;;;;3.27;1.50;;;24.50;40.20;;;;;;5075998;28;20203;-42
2022/11/17 11:47:53;;;;;;;2.30;1.13;;;23.50;40.90;;;;;;5076622;28;20413;-44
2022/11/17 11:50:23;;;;;;;3.47;1.50;;;22.40;42.20;;;;;;5044529;28;20472;-41
2022/11/17 11:53:07;;;;;;;5.20;1.67;;;21.70;43.70;;;;;;5077022;28;20409;-43
2022/11/17 11:55:34;;;;;;;2.13;1.10;;;21.80;44.10;;;;;;5075988;28;20552;-43
2022/11/17 11:58:04;;;;;;;3.70;1.50;;;22.30;44.20;;;;;;5073931;28;20843;-41
2022/11/17 12:00:29;;;;;;;2.60;1.43;;;23.30;43.10;;;;;;5073249;28;20447;-43
2022/11/17 12:03:07;;;;;;;5.30;1.50;;;24.30;42.30;;;;;;5074092;28;20545;-43
2022/11/17 12:08:55;;;;;;;3.17;1.30;;;27.00;38.90;;;;;;5074260;28;20430;-44
2022/11/17 12:14:05;;;;;;;3.87;1.40;;;25.80;38.60;;;;;;5075452;28;20516;-43
2022/11/17 12:16:38;;;;;;;3.77;1.47;;;25.10;39.40;;;;;;5072404;28;20408;-44
2022/11/17 12:19:42;;;;;;;5.27;1.90;;;24.80;40.10;;;;;;5074372;28;20427;-46
2022/11/17 12:22:08;;;;;;;2.73;1.10;;;25.70;39.80;;;;;;5071941;28;20506;-44
2022/11/17 12:24:39;;;;;;;3.67;1.30;;;25.70;39.50;;;;;;5070399;28;20709;-43
2022/11/17 12:27:31;;;;;;;2.00;1.13;;;25.50;39.70;;;;;;5072125;28;20488;-42
2022/11/17 12:29:57;;;;;;;3.73;1.90;;;25.40;39.90;;;;;;5072019;28;20418;-43
2022/11/17 12:33:03;;;;;;;6.20;1.57;;;25.50;39.90;;;;;;5073093;28;20430;-43
2022/11/17 12:35:33;;;;;;;2.53;1.27;;;25.30;40.10;;;;;;4992151;28;20233;-43
2022/11/17 12:38:16;;;;;;;3.10;1.60;;;25.10;40.20;;;;;;4976752;28;20425;-42
2022/11/17 12:40:48;;;;;;;2.80;1.50;;;24.80;40.20;;;;;;5041904;28;20504;-45
2022/11/17 12:43:14;;;;;;;3.20;1.33;;;24.30;40.10;;;;;;5075023;28;20411;-42
2022/11/17 12:45:51;;;;;;;4.17;1.53;;;24.30;40.30;;;;;;5073701;28;20427;-43
2022/11/17 12:48:23;;;;;;;4.30;1.37;;;25.00;39.90;;;;;;5075753;28;20436;-43
2022/11/17 12:51:12;;;;;;;3.37;1.77;;;25.70;39.30;;;;;;5074022;28;20430;-43
2022/11/17 12:53:47;;;;;;;8.67;1.67;;;27.00;38.10;;;;;;5073348;28;20426;-43
2022/11/17 12:56:34;;;;;;;3.23;1.60;;;28.10;36.90;;;;;;5091918;28;20903;-43
2022/11/17 12:59:32;;;;;;;5.90;1.67;;;29.00;35.30;;;;;;5094460;28;20399;-44
2022/11/17 13:02:23;;;;;;;5.40;2.10;;;30.00;34.60;;;;;;5051629;28;20400;-44
2022/11/17 13:04:54;;;;;;;3.40;1.63;;;31.20;33.60;;;;;;5077755;28;20711;-42
2022/11/17 13:07:24;;;;;;;3.93;1.70;;;32.20;32.40;;;;;;5093233;28;20693;-43
2022/11/17 13:09:57;;;;;;;4.10;2.20;;;33.10;31.70;;;;;;5094407;28;20468;-42
2022/11/17 13:12:30;;;;;;;3.67;1.60;;;33.90;30.70;;;;;;5092380;28;20401;-43
2022/11/17 13:15:03;;;;;;;2.90;1.17;;;33.90;29.90;;;;;;5092467;28;20469;-43
2022/11/17 13:17:41;;;;;;;5.97;1.60;;;34.20;29.60;;;;;;5093006;28;20384;-44
2022/11/17 13:20:28;;;;;;;6.50;1.63;;;34.00;29.20;;;;;;5093799;28;20500;-47
2022/11/17 13:23:09;;;;;;;5.80;1.67;;;33.50;29.10;;;;;;5093166;28;20495;-45
2022/11/17 13:25:35;;;;;;;2.93;1.50;;;33.50;29.30;;;;;;5076694;28;20482;-43
2022/11/17 13:28:01;;;;;;;3.33;1.40;;;33.70;29.30;;;;;;5076716;28;20459;-44
2022/11/17 13:30:31;;;;;;;3.53;1.50;;;34.10;29.10;;;;;;5076178;28;20198;-41
2022/11/17 13:33:00;;;;;;;3.53;1.50;;;34.40;28.90;;;;;;5091816;28;20185;-43
2022/11/17 13:35:34;;;;;;;4.77;1.83;;;33.70;29.00;;;;;;5093184;28;20760;-43
2022/11/17 13:38:19;;;;;;;5.03;2.33;;;32.80;29.30;;;;;;5093409;28;20685;-42
2022/11/17 13:40:49;;;;;;;5.40;2.30;;;32.30;29.80;;;;;;5095956;28;20717;-43
2022/11/17 13:43:18;;;;;;;3.30;1.83;;;31.90;30.00;;;;;;5097113;28;20825;-45